createdAt,value
2017-02-01T00:00:43.622Z,1015.94
2017-02-01T00:01:43.560Z,1015.95
2017-02-01T00:02:43.498Z,1015.94
2017-02-01T00:03:43.432Z,1015.93
2017-02-01T00:04:43.373Z,1015.95
2017-02-01T00:05:43.308Z,1015.9
2017-02-01T00:06:43.244Z,1015.9
2017-02-01T00:07:43.188Z,1015.89
2017-02-01T00:08:43.117Z,1015.85
2017-02-01T00:09:43.055Z,1015.84
2017-02-01T00:10:42.993Z,1015.87
2017-02-01T00:11:42.929Z,1015.82
2017-02-01T00:12:42.867Z,1015.85
2017-02-01T00:13:42.803Z,1015.88
2017-02-01T00:14:42.740Z,1015.88
2017-02-01T00:15:42.676Z,1015.91
2017-02-01T00:16:42.614Z,1015.87
2017-02-01T00:17:42.553Z,1015.88
2017-02-01T00:18:42.488Z,1015.88
2017-02-01T00:19:42.424Z,1015.88
2017-02-01T00:20:42.361Z,1015.9
2017-02-01T00:21:42.299Z,1015.94
2017-02-01T00:22:42.237Z,1015.9
2017-02-01T00:23:42.174Z,1015.9
2017-02-01T00:24:42.110Z,1015.89
2017-02-01T00:25:42.047Z,1015.94
2017-02-01T00:26:41.984Z,1015.91
2017-02-01T00:27:41.921Z,1015.89
2017-02-01T00:28:41.859Z,1015.89
2017-02-01T00:29:41.794Z,1015.89
2017-02-01T00:30:41.732Z,1015.88
2017-02-01T00:31:41.669Z,1015.9
2017-02-01T00:32:41.607Z,1015.91
2017-02-01T00:33:41.543Z,1015.91
2017-02-01T00:34:42.172Z,1015.94
2017-02-01T00:35:41.418Z,1015.97
2017-02-01T00:36:41.354Z,1015.96
2017-02-01T00:37:41.381Z,1015.96
2017-02-01T00:38:41.230Z,1015.95
2017-02-01T00:39:41.165Z,1015.93
2017-02-01T00:40:41.102Z,1015.94
2017-02-01T00:41:41.243Z,1015.95
2017-02-01T00:42:40.976Z,1015.97
2017-02-01T00:43:40.913Z,1015.95
2017-02-01T00:44:40.850Z,1015.99
2017-02-01T00:45:40.788Z,1016
2017-02-01T00:46:40.725Z,1016
2017-02-01T00:47:40.661Z,1016
2017-02-01T00:48:40.598Z,1016
2017-02-01T00:49:40.536Z,1016.04
2017-02-01T00:50:40.473Z,1016.05
2017-02-01T00:51:40.410Z,1016.06
2017-02-01T00:52:40.347Z,1016.04
2017-02-01T00:53:40.283Z,1016.01
2017-02-01T00:54:40.221Z,1016.01
2017-02-01T00:55:40.157Z,1016.01
2017-02-01T00:56:40.094Z,1016.04
2017-02-01T00:57:40.033Z,1016.02
2017-02-01T00:58:39.968Z,1015.99
2017-02-01T00:59:39.906Z,1016.02
2017-02-01T01:01:10.460Z,1016.03
2017-02-01T01:02:10.387Z,1016.03
2017-02-01T01:03:10.323Z,1016.06
2017-02-01T01:04:10.264Z,1016.05
2017-02-01T01:05:10.198Z,1016.06
2017-02-01T01:06:10.136Z,1016.01
2017-02-01T01:07:10.071Z,1016.07
2017-02-01T01:08:10.008Z,1016.08
2017-02-01T01:09:09.945Z,1016.07
2017-02-01T01:10:09.882Z,1016.08
2017-02-01T01:11:09.818Z,1016.13
2017-02-01T01:12:09.755Z,1016.12
2017-02-01T01:13:09.693Z,1016.12
2017-02-01T01:14:09.630Z,1016.14
2017-02-01T01:15:09.569Z,1016.08
2017-02-01T01:16:09.502Z,1016.11
2017-02-01T01:17:09.440Z,1016.11
2017-02-01T01:18:09.376Z,1016.16
2017-02-01T01:19:09.313Z,1016.14
2017-02-01T01:20:09.253Z,1016.16
2017-02-01T01:21:09.193Z,1016.14
2017-02-01T01:22:09.123Z,1016.19
2017-02-01T01:23:09.066Z,1016.12
2017-02-01T01:24:09.003Z,1016.12
2017-02-01T01:25:09.186Z,1016.09
2017-02-01T01:26:08.871Z,1016.09
2017-02-01T01:27:08.808Z,1016.08
2017-02-01T01:28:08.746Z,1016.09
2017-02-01T01:29:08.685Z,1016.09
2017-02-01T01:30:08.624Z,1016.1
2017-02-01T01:31:08.556Z,1016.09
2017-02-01T01:32:08.497Z,1016.07
2017-02-01T01:33:08.429Z,1016.07
2017-02-01T01:34:08.367Z,1016.06
2017-02-01T01:35:08.304Z,1016.07
2017-02-01T01:36:08.241Z,1016.06
2017-02-01T01:37:08.178Z,1016.06
2017-02-01T01:38:08.114Z,1016.06
2017-02-01T01:39:08.052Z,1016.08
2017-02-01T01:40:07.988Z,1016.08
2017-02-01T01:41:07.923Z,1016.06
2017-02-01T01:42:07.865Z,1016.06
2017-02-01T01:43:07.799Z,1016.05
2017-02-01T01:44:07.735Z,1016.03
2017-02-01T01:45:07.673Z,1016.08
2017-02-01T01:46:07.608Z,1016.1
2017-02-01T01:47:07.547Z,1016.04
2017-02-01T01:48:07.485Z,1016.03
2017-02-01T01:49:07.422Z,1016.03
2017-02-01T01:50:07.357Z,1016.04
2017-02-01T01:51:07.294Z,1016.06
2017-02-01T01:52:07.230Z,1016.03
2017-02-01T01:53:07.167Z,1016.04
2017-02-01T01:54:07.136Z,1016.03
2017-02-01T01:55:07.042Z,1016.04
2017-02-01T01:56:06.979Z,1016.06
2017-02-01T01:57:06.916Z,1016.11
2017-02-01T01:58:06.852Z,1016.1
2017-02-01T01:59:06.789Z,1016.1
2017-02-01T02:00:06.726Z,1016.08
2017-02-01T02:01:06.663Z,1016.06
2017-02-01T02:02:06.624Z,1016.07
2017-02-01T02:03:06.538Z,1016.11
2017-02-01T02:04:06.479Z,1016.09
2017-02-01T02:05:06.412Z,1016.1
2017-02-01T02:06:06.348Z,1016.12
2017-02-01T02:07:06.285Z,1016.11
2017-02-01T02:08:06.223Z,1016.12
2017-02-01T02:09:06.161Z,1016.1
2017-02-01T02:10:06.095Z,1016.1
2017-02-01T02:11:06.034Z,1016.12
2017-02-01T02:12:05.971Z,1016.11
2017-02-01T02:13:05.937Z,1016.07
2017-02-01T02:14:05.843Z,1016.09
2017-02-01T02:15:05.781Z,1016.06
2017-02-01T02:16:05.719Z,1016.06
2017-02-01T02:17:05.655Z,1016.07
2017-02-01T02:18:05.598Z,1016.13
2017-02-01T02:19:05.528Z,1016.11
2017-02-01T02:20:05.467Z,1016.13
2017-02-01T02:21:05.403Z,1016.12
2017-02-01T02:22:05.339Z,1016.12
2017-02-01T02:23:05.277Z,1016.15
2017-02-01T02:24:05.214Z,1016.12
2017-02-01T02:25:05.151Z,1016.12
2017-02-01T02:26:05.087Z,1016.15
2017-02-01T02:27:05.025Z,1016.12
2017-02-01T02:28:04.962Z,1016.13
2017-02-01T02:29:04.898Z,1016.13
2017-02-01T02:30:04.835Z,1016.07
2017-02-01T02:31:04.773Z,1016.09
2017-02-01T02:32:04.710Z,1016.11
2017-02-01T02:33:04.647Z,1016.11
2017-02-01T02:34:04.583Z,1016.11
2017-02-01T02:35:04.521Z,1016.08
2017-02-01T02:36:04.459Z,1016.08
2017-02-01T02:37:04.396Z,1016.06
2017-02-01T02:38:04.334Z,1016.07
2017-02-01T02:39:04.270Z,1016.09
2017-02-01T02:40:04.207Z,1016.08
2017-02-01T02:41:04.145Z,1016.04
2017-02-01T02:42:04.081Z,1016.01
2017-02-01T02:43:04.018Z,1016.03
2017-02-01T02:44:03.955Z,1016.08
2017-02-01T02:45:03.893Z,1016.08
2017-02-01T02:46:03.830Z,1016.07
2017-02-01T02:47:03.766Z,1016.09
2017-02-01T02:48:03.704Z,1016.11
2017-02-01T02:49:03.641Z,1016.13
2017-02-01T02:50:03.576Z,1016.13
2017-02-01T02:51:03.517Z,1016.12
2017-02-01T02:52:03.453Z,1016.12
2017-02-01T02:53:03.391Z,1016.14
2017-02-01T02:54:03.327Z,1016.13
2017-02-01T02:55:03.264Z,1016.15
2017-02-01T02:56:03.201Z,1016.2
2017-02-01T02:57:03.137Z,1016.19
2017-02-01T02:58:03.074Z,1016.16
2017-02-01T02:59:03.012Z,1016.22
2017-02-01T03:00:02.949Z,1016.19
2017-02-01T03:01:02.886Z,1016.25
2017-02-01T03:02:02.823Z,1016.21
2017-02-01T03:03:02.762Z,1016.22
2017-02-01T03:04:02.698Z,1016.24
2017-02-01T03:05:02.634Z,1016.24
2017-02-01T03:06:02.572Z,1016.23
2017-02-01T03:07:02.508Z,1016.25
2017-02-01T03:08:02.446Z,1016.26
2017-02-01T03:09:02.385Z,1016.27
2017-02-01T03:10:02.319Z,1016.22
2017-02-01T03:11:02.258Z,1016.24
2017-02-01T03:12:02.194Z,1016.24
2017-02-01T03:13:02.131Z,1016.27
2017-02-01T03:14:02.071Z,1016.23
2017-02-01T03:15:02.013Z,1016.19
2017-02-01T03:16:01.942Z,1016.23
2017-02-01T03:17:01.884Z,1016.17
2017-02-01T03:18:01.818Z,1016.21
2017-02-01T03:19:01.753Z,1016.23
2017-02-01T03:20:01.690Z,1016.18
2017-02-01T03:21:01.628Z,1016.17
2017-02-01T03:22:01.594Z,1016.21
2017-02-01T03:23:01.502Z,1016.21
2017-02-01T03:24:01.439Z,1016.23
2017-02-01T03:25:01.376Z,1016.23
2017-02-01T03:26:01.313Z,1016.22
2017-02-01T03:27:01.249Z,1016.24
2017-02-01T03:28:01.190Z,1016.21
2017-02-01T03:29:01.124Z,1016.24
2017-02-01T03:30:01.062Z,1016.24
2017-02-01T03:31:01.022Z,1016.26
2017-02-01T03:32:00.936Z,1016.24
2017-02-01T03:33:00.873Z,1016.26
2017-02-01T03:34:00.812Z,1016.22
2017-02-01T03:35:00.748Z,1016.22
2017-02-01T03:36:00.683Z,1016.21
2017-02-01T03:37:00.621Z,1016.24
2017-02-01T03:38:00.558Z,1016.26
2017-02-01T03:39:00.494Z,1016.3
2017-02-01T03:40:00.433Z,1016.3
2017-02-01T03:41:00.369Z,1016.27
2017-02-01T03:42:00.306Z,1016.25
2017-02-01T03:43:00.249Z,1016.25
2017-02-01T03:44:00.181Z,1016.25
2017-02-01T03:45:00.119Z,1016.27
2017-02-01T03:46:00.055Z,1016.31
2017-02-01T03:46:59.995Z,1016.3
2017-02-01T03:47:59.929Z,1016.32
2017-02-01T03:48:59.865Z,1016.38
2017-02-01T03:49:59.803Z,1016.39
2017-02-01T03:50:59.742Z,1016.4
2017-02-01T03:51:59.676Z,1016.41
2017-02-01T03:52:59.615Z,1016.42
2017-02-01T03:53:59.551Z,1016.42
2017-02-01T03:54:59.489Z,1016.42
2017-02-01T03:55:59.425Z,1016.45
2017-02-01T03:56:59.363Z,1016.47
2017-02-01T03:57:59.300Z,1016.49
2017-02-01T03:58:59.238Z,1016.46
2017-02-01T03:59:59.174Z,1016.48
2017-02-01T04:00:59.110Z,1016.47
2017-02-01T04:01:59.048Z,1016.47
2017-02-01T04:02:58.984Z,1016.49
2017-02-01T04:03:58.922Z,1016.47
2017-02-01T04:04:58.860Z,1016.52
2017-02-01T04:05:58.797Z,1016.51
2017-02-01T04:06:58.733Z,1016.52
2017-02-01T04:07:58.672Z,1016.55
2017-02-01T04:08:58.608Z,1016.55
2017-02-01T04:09:58.546Z,1016.55
2017-02-01T04:10:58.483Z,1016.53
2017-02-01T04:11:58.421Z,1016.58
2017-02-01T04:12:58.359Z,1016.52
2017-02-01T04:13:58.294Z,1016.57
2017-02-01T04:14:58.231Z,1016.53
2017-02-01T04:15:58.168Z,1016.52
2017-02-01T04:16:58.106Z,1016.5
2017-02-01T04:17:58.042Z,1016.5
2017-02-01T04:18:57.981Z,1016.48
2017-02-01T04:19:57.918Z,1016.46
2017-02-01T04:20:57.854Z,1016.44
2017-02-01T04:21:57.790Z,1016.43
2017-02-01T04:22:57.728Z,1016.44
2017-02-01T04:23:57.666Z,1016.44
2017-02-01T04:24:57.603Z,1016.45
2017-02-01T04:25:57.541Z,1016.42
2017-02-01T04:26:57.475Z,1016.43
2017-02-01T04:27:57.434Z,1016.4
2017-02-01T04:28:57.351Z,1016.38
2017-02-01T04:29:57.288Z,1016.34
2017-02-01T04:30:57.224Z,1016.37
2017-02-01T04:31:57.160Z,1016.34
2017-02-01T04:32:57.100Z,1016.36
2017-02-01T04:33:57.035Z,1016.38
2017-02-01T04:34:56.973Z,1016.4
2017-02-01T04:35:56.909Z,1016.36
2017-02-01T04:36:56.847Z,1016.37
2017-02-01T04:37:56.784Z,1016.38
2017-02-01T04:38:56.726Z,1016.4
2017-02-01T04:39:56.656Z,1016.44
2017-02-01T04:40:56.595Z,1016.38
2017-02-01T04:41:56.532Z,1016.4
2017-02-01T04:42:56.468Z,1016.35
2017-02-01T04:43:56.406Z,1016.35
2017-02-01T04:44:56.344Z,1016.35
2017-02-01T04:45:56.280Z,1016.34
2017-02-01T04:46:56.216Z,1016.38
2017-02-01T04:47:56.154Z,1016.35
2017-02-01T04:48:56.091Z,1016.36
2017-02-01T04:49:56.028Z,1016.32
2017-02-01T04:50:55.969Z,1016.31
2017-02-01T04:51:55.903Z,1016.34
2017-02-01T04:52:55.846Z,1016.36
2017-02-01T04:53:55.778Z,1016.35
2017-02-01T04:54:55.713Z,1016.33
2017-02-01T04:55:55.650Z,1016.32
2017-02-01T04:56:55.589Z,1016.3
2017-02-01T04:57:55.525Z,1016.31
2017-02-01T04:58:55.462Z,1016.33
2017-02-01T04:59:55.399Z,1016.42
2017-02-01T05:00:55.336Z,1016.48
2017-02-01T05:01:55.273Z,1016.91
2017-02-01T05:02:55.210Z,1017.06
2017-02-01T05:03:55.148Z,1016.71
2017-02-01T05:04:55.083Z,1016.68
2017-02-01T05:05:55.021Z,1016.67
2017-02-01T05:06:54.959Z,1016.65
2017-02-01T05:07:54.896Z,1016.64
2017-02-01T05:08:54.831Z,1016.68
2017-02-01T05:09:54.769Z,1016.7
2017-02-01T05:10:54.707Z,1016.69
2017-02-01T05:11:54.644Z,1016.67
2017-02-01T05:12:54.580Z,1016.64
2017-02-01T05:13:54.517Z,1016.69
2017-02-01T05:14:54.455Z,1016.67
2017-02-01T05:15:54.391Z,1016.67
2017-02-01T05:16:54.328Z,1016.73
2017-02-01T05:17:54.265Z,1016.69
2017-02-01T05:18:54.203Z,1016.52
2017-02-01T05:19:54.139Z,1016.51
2017-02-01T05:20:54.077Z,1016.54
2017-02-01T05:21:54.013Z,1016.53
2017-02-01T05:22:53.950Z,1016.53
2017-02-01T05:23:53.887Z,1016.5
2017-02-01T05:24:53.825Z,1016.51
2017-02-01T05:25:53.762Z,1016.54
2017-02-01T05:26:53.698Z,1016.53
2017-02-01T05:27:53.637Z,1016.53
2017-02-01T05:28:53.574Z,1016.54
2017-02-01T05:29:53.514Z,1016.58
2017-02-01T05:30:53.448Z,1016.56
2017-02-01T05:31:53.383Z,1016.57
2017-02-01T05:32:53.319Z,1016.59
2017-02-01T05:33:53.258Z,1016.58
2017-02-01T05:34:53.196Z,1016.57
2017-02-01T05:35:53.132Z,1016.56
2017-02-01T05:36:53.068Z,1016.56
2017-02-01T05:37:53.005Z,1016.57
2017-02-01T05:38:52.942Z,1016.58
2017-02-01T05:39:52.878Z,1016.6
2017-02-01T05:40:52.816Z,1016.6
2017-02-01T05:41:52.755Z,1016.56
2017-02-01T05:42:52.690Z,1016.55
2017-02-01T05:43:52.627Z,1016.57
2017-02-01T05:44:52.564Z,1016.54
2017-02-01T05:45:52.503Z,1016.56
2017-02-01T05:46:52.440Z,1016.52
2017-02-01T05:47:52.375Z,1016.5
2017-02-01T05:48:52.311Z,1016.57
2017-02-01T05:49:52.251Z,1016.53
2017-02-01T05:50:52.188Z,1016.6
2017-02-01T05:51:52.124Z,1016.59
2017-02-01T05:52:52.060Z,1016.59
2017-02-01T05:53:51.997Z,1016.61
2017-02-01T05:54:51.935Z,1016.59
2017-02-01T05:55:52.022Z,1016.62
2017-02-01T05:56:51.808Z,1016.68
2017-02-01T05:57:51.745Z,1016.66
2017-02-01T05:58:51.683Z,1016.68
2017-02-01T05:59:51.619Z,1016.65
2017-02-01T06:00:51.555Z,1016.65
2017-02-01T06:01:51.495Z,1016.61
2017-02-01T06:02:51.431Z,1016.66
2017-02-01T06:03:51.367Z,1016.61
2017-02-01T06:04:51.305Z,1016.6
2017-02-01T06:05:51.242Z,1016.62
2017-02-01T06:06:51.178Z,1016.61
2017-02-01T06:07:51.117Z,1016.62
2017-02-01T06:08:51.053Z,1016.64
2017-02-01T06:09:50.990Z,1016.63
2017-02-01T06:10:50.925Z,1016.65
2017-02-01T06:11:50.864Z,1016.67
2017-02-01T06:12:50.800Z,1016.65
2017-02-01T06:13:50.737Z,1016.67
2017-02-01T06:14:50.673Z,1016.64
2017-02-01T06:15:50.611Z,1016.66
2017-02-01T06:16:50.547Z,1016.67
2017-02-01T06:17:50.484Z,1016.69
2017-02-01T06:18:50.422Z,1016.65
2017-02-01T06:19:50.359Z,1016.64
2017-02-01T06:20:50.296Z,1016.65
2017-02-01T06:21:50.232Z,1016.64
2017-02-01T06:22:50.171Z,1016.66
2017-02-01T06:23:50.106Z,1016.62
2017-02-01T06:24:50.043Z,1016.62
2017-02-01T06:25:49.980Z,1016.63
2017-02-01T06:26:49.916Z,1016.69
2017-02-01T06:27:49.853Z,1016.62
2017-02-01T06:28:49.790Z,1016.65
2017-02-01T06:29:49.726Z,1016.67
2017-02-01T06:30:49.664Z,1016.64
2017-02-01T06:31:49.603Z,1016.65
2017-02-01T06:32:49.537Z,1016.67
2017-02-01T06:33:49.475Z,1016.68
2017-02-01T06:34:49.411Z,1016.64
2017-02-01T06:35:49.348Z,1016.66
2017-02-01T06:36:49.285Z,1016.68
2017-02-01T06:37:49.221Z,1016.67
2017-02-01T06:38:49.159Z,1016.67
2017-02-01T06:39:49.095Z,1016.7
2017-02-01T06:40:49.036Z,1016.7
2017-02-01T06:41:48.970Z,1016.71
2017-02-01T06:42:48.906Z,1016.74
2017-02-01T06:43:48.844Z,1016.75
2017-02-01T06:44:48.780Z,1016.8
2017-02-01T06:45:48.718Z,1016.78
2017-02-01T06:46:48.653Z,1016.8
2017-02-01T06:47:48.590Z,1016.85
2017-02-01T06:48:48.527Z,1016.88
2017-02-01T06:49:48.466Z,1016.9
2017-02-01T06:50:48.402Z,1016.93
2017-02-01T06:51:48.338Z,1016.94
2017-02-01T06:52:48.276Z,1016.95
2017-02-01T06:53:48.213Z,1016.92
2017-02-01T06:54:48.148Z,1016.94
2017-02-01T06:55:48.085Z,1016.94
2017-02-01T06:56:48.025Z,1016.92
2017-02-01T06:57:47.960Z,1016.95
2017-02-01T06:58:47.896Z,1016.96
2017-02-01T06:59:47.835Z,1016.94
2017-02-01T07:00:47.771Z,1016.97
2017-02-01T07:01:47.707Z,1016.93
2017-02-01T07:02:47.644Z,1016.95
2017-02-01T07:03:47.582Z,1016.95
2017-02-01T07:04:47.520Z,1016.93
2017-02-01T07:05:47.456Z,1016.98
2017-02-01T07:06:47.393Z,1016.98
2017-02-01T07:07:47.330Z,1017
2017-02-01T07:08:47.266Z,1016.94
2017-02-01T07:09:47.203Z,1016.97
2017-02-01T07:10:47.141Z,1016.97
2017-02-01T07:11:47.078Z,1016.98
2017-02-01T07:12:47.014Z,1016.96
2017-02-01T07:13:46.951Z,1016.99
2017-02-01T07:14:46.889Z,1016.98
2017-02-01T07:15:46.825Z,1017
2017-02-01T07:16:46.761Z,1017.04
2017-02-01T07:17:46.699Z,1017.06
2017-02-01T07:18:46.639Z,1017.06
2017-02-01T07:19:46.574Z,1017.05
2017-02-01T07:20:46.511Z,1017.03
2017-02-01T07:21:46.449Z,1017
2017-02-01T07:22:46.385Z,1017.02
2017-02-01T07:23:46.321Z,1016.97
2017-02-01T07:24:46.259Z,1016.99
2017-02-01T07:25:46.195Z,1017
2017-02-01T07:26:46.133Z,1017
2017-02-01T07:27:46.069Z,1017.03
2017-02-01T07:28:46.006Z,1017.02
2017-02-01T07:29:45.943Z,1017.06
2017-02-01T07:30:45.881Z,1017.07
2017-02-01T07:31:45.818Z,1017.03
2017-02-01T07:32:45.754Z,1017.06
2017-02-01T07:33:45.692Z,1017.07
2017-02-01T07:34:45.628Z,1017.04
2017-02-01T07:35:45.565Z,1017.02
2017-02-01T07:36:45.504Z,1017.05
2017-02-01T07:37:45.440Z,1017.02
2017-02-01T07:38:45.376Z,1017.03
2017-02-01T07:39:45.339Z,1017.05
2017-02-01T07:40:45.250Z,1017.07
2017-02-01T07:41:45.187Z,1017.06
2017-02-01T07:42:45.124Z,1017.08
2017-02-01T07:43:45.064Z,1017.07
2017-02-01T07:44:44.999Z,1017.08
2017-02-01T07:45:44.935Z,1017.08
2017-02-01T07:46:44.873Z,1017.1
2017-02-01T07:47:44.843Z,1017.08
2017-02-01T07:48:44.797Z,1017.06
2017-02-01T07:49:44.689Z,1017.08
2017-02-01T07:50:44.620Z,1017.07
2017-02-01T07:51:44.556Z,1017.04
2017-02-01T07:52:44.494Z,1017.07
2017-02-01T07:53:44.432Z,1017.08
2017-02-01T07:54:44.412Z,1017.04
2017-02-01T07:55:44.305Z,1017.05
2017-02-01T07:56:44.243Z,1017.06
2017-02-01T07:57:44.179Z,1017.06
2017-02-01T07:58:44.115Z,1017
2017-02-01T07:59:44.065Z,1017.06
2017-02-01T08:00:43.990Z,1017.06
2017-02-01T08:01:43.962Z,1017.06
2017-02-01T08:02:43.863Z,1017.03
2017-02-01T08:03:43.800Z,1017.07
2017-02-01T08:04:43.738Z,1017.02
2017-02-01T08:05:43.675Z,1017.02
2017-02-01T08:06:43.612Z,1017.02
2017-02-01T08:07:43.555Z,1017.04
2017-02-01T08:08:43.486Z,1017.01
2017-02-01T08:09:43.422Z,1017.03
2017-02-01T08:10:43.361Z,1017.01
2017-02-01T08:11:43.298Z,1017.01
2017-02-01T08:12:43.233Z,1016.97
2017-02-01T08:13:43.171Z,1016.99
2017-02-01T08:14:43.108Z,1016.96
2017-02-01T08:15:43.046Z,1016.99
2017-02-01T08:16:42.983Z,1016.97
2017-02-01T08:17:42.919Z,1016.99
2017-02-01T08:18:42.856Z,1016.98
2017-02-01T08:19:42.793Z,1016.97
2017-02-01T08:20:42.733Z,1016.95
2017-02-01T08:21:42.669Z,1016.97
2017-02-01T08:22:42.604Z,1017.01
2017-02-01T08:23:42.541Z,1016.95
2017-02-01T08:24:42.478Z,1016.98
2017-02-01T08:25:42.664Z,1017.01
2017-02-01T08:26:42.351Z,1016.96
2017-02-01T08:27:42.289Z,1016.97
2017-02-01T08:28:42.226Z,1016.95
2017-02-01T08:29:42.162Z,1017
2017-02-01T08:30:42.349Z,1017.01
2017-02-01T08:31:42.038Z,1016.98
2017-02-01T08:32:41.974Z,1017
2017-02-01T08:33:41.910Z,1017.03
2017-02-01T08:34:41.860Z,1017.01
2017-02-01T08:35:41.785Z,1017
2017-02-01T08:36:41.721Z,1017.01
2017-02-01T08:37:41.660Z,1017.09
2017-02-01T08:38:41.595Z,1017.08
2017-02-01T08:39:41.532Z,1017.08
2017-02-01T08:40:41.468Z,1017.05
2017-02-01T08:41:41.405Z,1017.05
2017-02-01T08:42:41.343Z,1017.04
2017-02-01T08:43:41.280Z,1017.03
2017-02-01T08:44:41.216Z,1017.02
2017-02-01T08:45:41.153Z,1017.02
2017-02-01T08:46:41.091Z,1017.02
2017-02-01T08:47:41.027Z,1017
2017-02-01T08:48:40.964Z,1017.02
2017-02-01T08:49:40.903Z,1017.02
2017-02-01T08:50:40.840Z,1017.01
2017-02-01T08:51:40.775Z,1016.98
2017-02-01T08:52:40.711Z,1016.97
2017-02-01T08:53:40.648Z,1017.04
2017-02-01T08:54:40.587Z,1017.03
2017-02-01T08:55:40.523Z,1017.05
2017-02-01T08:56:40.462Z,1017.04
2017-02-01T08:57:40.397Z,1017.04
2017-02-01T08:58:40.334Z,1017.03
2017-02-01T08:59:40.272Z,1017.01
2017-02-01T09:00:40.458Z,1017.03
2017-02-01T09:01:40.146Z,1017.06
2017-02-01T09:02:40.083Z,1017.09
2017-02-01T09:03:40.022Z,1017.07
2017-02-01T09:04:39.958Z,1017.02
2017-02-01T09:05:40.242Z,1016.99
2017-02-01T09:06:39.831Z,1017
2017-02-01T09:07:39.767Z,1017.03
2017-02-01T09:08:39.704Z,1017
2017-02-01T09:09:39.640Z,1017
2017-02-01T09:10:39.577Z,1017
2017-02-01T09:11:39.514Z,1016.99
2017-02-01T09:12:39.453Z,1016.96
2017-02-01T09:13:39.388Z,1016.99
2017-02-01T09:14:39.325Z,1016.97
2017-02-01T09:15:39.275Z,1016.94
2017-02-01T09:16:39.199Z,1016.93
2017-02-01T09:17:39.140Z,1016.9
2017-02-01T09:18:39.086Z,1016.95
2017-02-01T09:19:39.010Z,1016.87
2017-02-01T09:20:38.947Z,1016.88
2017-02-01T09:21:38.883Z,1016.86
2017-02-01T09:22:38.822Z,1016.86
2017-02-01T09:23:38.759Z,1016.88
2017-02-01T09:24:38.694Z,1016.88
2017-02-01T09:25:38.632Z,1016.88
2017-02-01T09:26:38.569Z,1016.87
2017-02-01T09:27:38.505Z,1016.92
2017-02-01T09:28:38.448Z,1016.9
2017-02-01T09:29:38.379Z,1016.88
2017-02-01T09:30:38.317Z,1016.93
2017-02-01T09:31:38.254Z,1016.92
2017-02-01T09:32:38.191Z,1016.91
2017-02-01T09:33:38.152Z,1016.96
2017-02-01T09:34:38.080Z,1016.95
2017-02-01T09:35:38.008Z,1016.92
2017-02-01T09:36:37.938Z,1016.96
2017-02-01T09:37:37.875Z,1016.98
2017-02-01T09:38:37.811Z,1017
2017-02-01T09:39:37.749Z,1017
2017-02-01T09:40:37.686Z,1017.01
2017-02-01T09:41:37.625Z,1017
2017-02-01T09:42:37.578Z,1017.02
2017-02-01T09:43:37.498Z,1017.07
2017-02-01T09:44:37.433Z,1017.02
2017-02-01T09:45:37.821Z,1017.02
2017-02-01T09:46:37.308Z,1017.04
2017-02-01T09:47:37.246Z,1017.04
2017-02-01T09:48:37.183Z,1017.05
2017-02-01T09:49:37.119Z,1017.05
2017-02-01T09:50:37.057Z,1017.07
2017-02-01T09:51:36.993Z,1017.04
2017-02-01T09:52:36.931Z,1017.06
2017-02-01T09:53:36.868Z,1017.09
2017-02-01T09:54:36.805Z,1017.07
2017-02-01T09:55:36.741Z,1017.05
2017-02-01T09:56:36.680Z,1017.07
2017-02-01T09:57:36.619Z,1017.08
2017-02-01T09:58:36.552Z,1017.05
2017-02-01T09:59:36.489Z,1017.04
2017-02-01T10:00:36.426Z,1017.04
2017-02-01T10:01:36.364Z,1017.05
2017-02-01T10:02:36.302Z,1017.03
2017-02-01T10:03:36.238Z,1017.03
2017-02-01T10:04:36.174Z,1017
2017-02-01T10:05:36.114Z,1017
2017-02-01T10:06:36.061Z,1017.04
2017-02-01T10:07:35.986Z,1017.03
2017-02-01T10:08:35.927Z,1016.99
2017-02-01T10:09:35.861Z,1017.05
2017-02-01T10:10:35.799Z,1017.01
2017-02-01T10:11:35.733Z,1017.03
2017-02-01T10:12:35.670Z,1017.01
2017-02-01T10:13:35.608Z,1017.05
2017-02-01T10:14:35.546Z,1017.04
2017-02-01T10:15:35.480Z,1017.03
2017-02-01T10:16:35.418Z,1017.02
2017-02-01T10:17:35.356Z,1016.97
2017-02-01T10:18:35.298Z,1016.95
2017-02-01T10:19:35.230Z,1016.99
2017-02-01T10:20:35.167Z,1016.99
2017-02-01T10:21:35.103Z,1016.96
2017-02-01T10:22:35.040Z,1016.92
2017-02-01T10:23:34.981Z,1016.93
2017-02-01T10:24:34.914Z,1016.9
2017-02-01T10:25:34.851Z,1016.93
2017-02-01T10:26:34.789Z,1016.91
2017-02-01T10:27:34.728Z,1016.99
2017-02-01T10:28:34.662Z,1016.93
2017-02-01T10:29:34.600Z,1016.94
2017-02-01T10:30:34.537Z,1016.91
2017-02-01T10:31:34.474Z,1016.93
2017-02-01T10:32:34.411Z,1016.9
2017-02-01T10:33:34.349Z,1016.89
2017-02-01T10:34:34.286Z,1016.85
2017-02-01T10:35:34.523Z,1016.84
2017-02-01T10:36:34.161Z,1016.84
2017-02-01T10:37:34.095Z,1016.85
2017-02-01T10:38:34.035Z,1016.86
2017-02-01T10:39:33.987Z,1016.85
2017-02-01T10:40:33.911Z,1016.85
2017-02-01T10:41:33.849Z,1016.85
2017-02-01T10:42:33.781Z,1016.81
2017-02-01T10:43:33.719Z,1016.84
2017-02-01T10:44:33.655Z,1016.82
2017-02-01T10:45:33.843Z,1016.81
2017-02-01T10:46:33.529Z,1016.81
2017-02-01T10:47:33.466Z,1016.76
2017-02-01T10:48:33.403Z,1016.79
2017-02-01T10:49:33.340Z,1016.76
2017-02-01T10:50:33.283Z,1016.77
2017-02-01T10:51:33.215Z,1016.75
2017-02-01T10:52:33.151Z,1016.8
2017-02-01T10:53:33.088Z,1016.77
2017-02-01T10:54:33.026Z,1016.76
2017-02-01T10:55:32.963Z,1016.79
2017-02-01T10:56:32.899Z,1016.78
2017-02-01T10:57:32.838Z,1016.78
2017-02-01T10:58:32.776Z,1016.77
2017-02-01T10:59:32.710Z,1016.78
2017-02-01T11:00:32.647Z,1016.79
2017-02-01T11:01:32.585Z,1016.8
2017-02-01T11:02:32.523Z,1016.78
2017-02-01T11:03:32.459Z,1016.8
2017-02-01T11:04:32.395Z,1016.76
2017-02-01T11:05:32.332Z,1016.74
2017-02-01T11:06:32.269Z,1016.73
2017-02-01T11:07:32.207Z,1016.75
2017-02-01T11:08:32.144Z,1016.77
2017-02-01T11:09:32.084Z,1016.75
2017-02-01T11:10:32.017Z,1016.75
2017-02-01T11:11:31.954Z,1016.7
2017-02-01T11:12:31.892Z,1016.72
2017-02-01T11:13:31.827Z,1016.7
2017-02-01T11:14:31.764Z,1016.73
2017-02-01T11:15:32.002Z,1016.7
2017-02-01T11:16:31.641Z,1016.74
2017-02-01T11:17:31.575Z,1016.73
2017-02-01T11:18:31.512Z,1016.71
2017-02-01T11:19:31.450Z,1016.72
2017-02-01T11:20:31.386Z,1016.72
2017-02-01T11:21:31.321Z,1016.7
2017-02-01T11:22:31.261Z,1016.7
2017-02-01T11:23:31.197Z,1016.69
2017-02-01T11:24:31.133Z,1016.69
2017-02-01T11:25:31.070Z,1016.67
2017-02-01T11:26:31.009Z,1016.71
2017-02-01T11:27:30.943Z,1016.66
2017-02-01T11:28:30.880Z,1016.64
2017-02-01T11:29:30.818Z,1016.66
2017-02-01T11:30:30.758Z,1016.61
2017-02-01T11:31:30.697Z,1016.61
2017-02-01T11:32:30.634Z,1016.61
2017-02-01T11:33:30.565Z,1016.6
2017-02-01T11:34:30.501Z,1016.58
2017-02-01T11:35:30.441Z,1016.57
2017-02-01T11:36:30.376Z,1016.58
2017-02-01T11:37:30.313Z,1016.57
2017-02-01T11:38:30.251Z,1016.62
2017-02-01T11:39:30.186Z,1016.61
2017-02-01T11:40:30.124Z,1016.6
2017-02-01T11:41:30.062Z,1016.61
2017-02-01T11:42:29.999Z,1016.63
2017-02-01T11:43:29.934Z,1016.59
2017-02-01T11:44:29.873Z,1016.58
2017-02-01T11:45:29.809Z,1016.56
2017-02-01T11:46:29.745Z,1016.56
2017-02-01T11:47:29.685Z,1016.51
2017-02-01T11:48:29.621Z,1016.49
2017-02-01T11:49:29.556Z,1016.51
2017-02-01T11:50:29.494Z,1016.47
2017-02-01T11:51:29.429Z,1016.49
2017-02-01T11:52:29.367Z,1016.5
2017-02-01T11:53:29.304Z,1016.45
2017-02-01T11:54:29.241Z,1016.48
2017-02-01T11:55:29.178Z,1016.47
2017-02-01T11:56:29.116Z,1016.44
2017-02-01T11:57:29.051Z,1016.42
2017-02-01T11:58:28.989Z,1016.4
2017-02-01T11:59:28.926Z,1016.37
2017-02-01T12:00:28.863Z,1016.37
2017-02-01T12:01:28.799Z,1016.36
2017-02-01T12:02:28.736Z,1016.36
2017-02-01T12:03:28.673Z,1016.3
2017-02-01T12:04:28.610Z,1016.3
2017-02-01T12:05:28.547Z,1016.28
2017-02-01T12:06:28.486Z,1016.31
2017-02-01T12:07:28.421Z,1016.31
2017-02-01T12:08:28.358Z,1016.3
2017-02-01T12:09:28.297Z,1016.25